createdAt,value
2018-10-18T00:01:11.721Z,10.63
2018-10-18T00:03:47.630Z,10.07
2018-10-18T00:06:23.344Z,10.27
2018-10-18T00:08:59.353Z,9.93
2018-10-18T00:11:35.188Z,9.47
2018-10-18T00:14:10.998Z,10.07
2018-10-18T00:16:47.136Z,11.83
2018-10-18T00:19:22.881Z,11.83
2018-10-18T00:21:58.766Z,11.47
2018-10-18T00:24:34.867Z,11.90
2018-10-18T00:27:10.743Z,11.67
2018-10-18T00:29:46.640Z,11.07
2018-10-18T00:32:22.603Z,10.77
2018-10-18T00:34:58.452Z,12.97
2018-10-18T00:37:34.450Z,11.77
2018-10-18T00:40:11.650Z,13.40
2018-10-18T00:42:47.503Z,14.47
2018-10-18T00:45:23.296Z,14.47
2018-10-18T00:47:59.506Z,13.57
2018-10-18T00:50:35.568Z,14.23
2018-10-18T00:53:11.369Z,15.40
2018-10-18T00:55:47.362Z,16.70
2018-10-18T00:58:23.128Z,18.70
2018-10-18T01:00:58.850Z,17.80
2018-10-18T01:03:34.476Z,17.90
2018-10-18T01:06:10.253Z,18.70
2018-10-18T01:08:46.244Z,17.33
2018-10-18T01:11:22.064Z,19.13
2018-10-18T01:13:57.873Z,16.47
2018-10-18T01:16:33.876Z,18.27
2018-10-18T01:19:09.727Z,17.57
2018-10-18T01:21:45.585Z,17.37
2018-10-18T01:24:21.356Z,16.77
2018-10-18T01:26:57.324Z,13.43
2018-10-18T01:29:33.185Z,14.73
2018-10-18T01:32:09.122Z,11.70
2018-10-18T01:34:44.948Z,11.97
2018-10-18T01:37:20.964Z,11.27
2018-10-18T01:39:56.782Z,11.77
2018-10-18T01:42:33.039Z,11.90
2018-10-18T01:45:08.980Z,11.83
2018-10-18T01:47:44.789Z,12.07
2018-10-18T01:50:21.134Z,13.13
2018-10-18T01:52:57.109Z,12.87
2018-10-18T01:55:33.006Z,13.57
2018-10-18T01:58:08.988Z,13.80
2018-10-18T02:00:44.975Z,12.20
2018-10-18T02:03:20.763Z,11.57
2018-10-18T02:05:56.624Z,11.73
2018-10-18T02:08:32.586Z,13.13
2018-10-18T02:12:32.482Z,13.17
2018-10-18T02:15:10.573Z,14.63
2018-10-18T02:17:46.501Z,13.80
2018-10-18T02:20:22.446Z,14.23
2018-10-18T02:22:58.200Z,14.67
2018-10-18T02:25:34.056Z,15.53
2018-10-18T02:28:09.856Z,14.10
2018-10-18T02:30:45.862Z,12.80
2018-10-18T02:33:21.686Z,13.37
2018-10-18T02:35:57.478Z,12.20
2018-10-18T02:38:33.295Z,12.20
2018-10-18T02:41:09.066Z,12.50
2018-10-18T02:43:45.016Z,10.03
2018-10-18T02:46:21.230Z,11.13
2018-10-18T02:48:56.990Z,11.10
2018-10-18T02:51:32.918Z,10.60
2018-10-18T02:54:08.718Z,10.57
2018-10-18T02:56:44.597Z,11.63
2018-10-18T02:59:20.606Z,13.60
2018-10-18T03:01:56.554Z,13.77
2018-10-18T03:04:32.784Z,14.53
2018-10-18T03:07:08.897Z,14.53
2018-10-18T03:09:44.734Z,15.33
2018-10-18T03:12:20.743Z,14.57
2018-10-18T03:14:56.621Z,15.33
2018-10-18T03:17:32.423Z,15.93
2018-10-18T03:20:09.013Z,16.80
2018-10-18T03:22:44.846Z,16.00
2018-10-18T03:25:20.601Z,15.93
2018-10-18T03:27:56.560Z,15.83
2018-10-18T03:30:33.763Z,17.00
2018-10-18T03:33:09.726Z,15.90
2018-10-18T03:35:45.652Z,16.53
2018-10-18T03:38:21.546Z,17.17
2018-10-18T03:40:57.467Z,17.40
2018-10-18T03:43:33.386Z,19.67
2018-10-18T03:46:09.220Z,21.87
2018-10-18T03:48:45.115Z,36.17
2018-10-18T03:51:20.913Z,27.40
2018-10-18T03:53:56.925Z,30.93
2018-10-18T03:56:33.081Z,18.53
2018-10-18T03:59:09.108Z,13.80
2018-10-18T04:01:49.202Z,18.90
2018-10-18T04:04:29.484Z,19.00
2018-10-18T04:07:05.580Z,19.37
2018-10-18T04:09:41.392Z,16.87
2018-10-18T04:12:17.219Z,17.87
2018-10-18T04:14:53.238Z,26.13
2018-10-18T04:17:29.136Z,24.60
2018-10-18T04:20:05.888Z,76.27
2018-10-18T04:22:41.638Z,33.30
2018-10-18T04:25:17.494Z,24.10
2018-10-18T04:27:53.564Z,22.90
2018-10-18T04:30:29.646Z,24.97
2018-10-18T04:33:06.266Z,23.77
2018-10-18T04:35:42.299Z,20.30
2018-10-18T04:38:20.879Z,18.97
2018-10-18T04:40:57.663Z,22.57
2018-10-18T04:43:33.363Z,22.67
2018-10-18T04:46:09.302Z,30.63
2018-10-18T04:48:45.286Z,26.63
2018-10-18T04:51:21.964Z,27.87
2018-10-18T04:53:57.917Z,27.53
2018-10-18T04:56:33.792Z,25.03
2018-10-18T04:59:09.876Z,28.23
2018-10-18T05:01:46.010Z,28.07
2018-10-18T05:04:22.143Z,25.63
2018-10-18T05:06:58.457Z,26.20
2018-10-18T05:09:34.500Z,31.13
2018-10-18T05:12:10.564Z,25.80
2018-10-18T05:14:46.352Z,19.20
2018-10-18T05:17:26.681Z,21.83
2018-10-18T05:20:02.381Z,28.33
2018-10-18T05:22:38.390Z,54.63
2018-10-18T05:25:14.310Z,26.70
2018-10-18T05:27:50.370Z,28.67
2018-10-18T05:30:26.230Z,41.03
2018-10-18T05:33:02.272Z,25.03
2018-10-18T05:35:38.201Z,20.30
2018-10-18T05:38:14.533Z,26.17
2018-10-18T05:40:50.227Z,38.37
2018-10-18T05:43:26.086Z,41.90
2018-10-18T05:46:01.960Z,38.33
2018-10-18T05:48:37.868Z,28.80
2018-10-18T05:51:13.631Z,34.10
2018-10-18T05:53:49.714Z,44.37
2018-10-18T05:56:25.782Z,47.53
2018-10-18T05:59:01.646Z,29.33
2018-10-18T06:01:37.501Z,30.80
2018-10-18T06:04:13.400Z,25.77
2018-10-18T06:06:49.275Z,22.63
2018-10-18T06:09:31.065Z,26.87
2018-10-18T06:12:07.047Z,32.30
2018-10-18T06:14:43.075Z,31.93
2018-10-18T06:17:19.069Z,33.57
2018-10-18T06:19:54.982Z,31.63
2018-10-18T06:22:31.052Z,29.60
2018-10-18T06:25:07.986Z,31.90
2018-10-18T06:27:44.173Z,26.33
2018-10-18T06:30:20.092Z,29.97
2018-10-18T06:32:55.979Z,28.33
2018-10-18T06:35:32.057Z,28.07
2018-10-18T06:38:08.069Z,25.10
2018-10-18T06:40:44.024Z,19.93
2018-10-18T06:43:19.885Z,21.20
2018-10-18T06:45:56.152Z,18.57
2018-10-18T06:48:33.263Z,15.77
2018-10-18T06:51:09.662Z,15.37
2018-10-18T06:53:45.636Z,14.83
2018-10-18T06:56:21.584Z,17.50
2018-10-18T06:58:57.505Z,16.47
2018-10-18T07:01:33.630Z,18.87
2018-10-18T07:04:09.536Z,15.87
2018-10-18T07:06:45.720Z,15.03
2018-10-18T07:09:21.600Z,13.60
2018-10-18T07:11:57.641Z,10.87
2018-10-18T07:14:33.617Z,10.67
2018-10-18T07:17:09.513Z,15.47
2018-10-18T07:19:45.385Z,13.50
2018-10-18T07:22:21.394Z,14.00
2018-10-18T07:24:57.350Z,11.87
2018-10-18T07:27:33.278Z,11.50
2018-10-18T07:30:10.715Z,14.50
2018-10-18T07:32:46.823Z,12.77
2018-10-18T07:35:22.841Z,11.73
2018-10-18T07:38:00.034Z,12.67
2018-10-18T07:40:35.854Z,11.63
2018-10-18T07:43:11.852Z,12.60
2018-10-18T07:45:47.881Z,12.60
2018-10-18T07:48:23.950Z,12.43
2018-10-18T07:50:59.773Z,11.73
2018-10-18T07:53:35.716Z,11.13
2018-10-18T07:56:11.764Z,10.97
2018-10-18T07:58:47.684Z,10.10
2018-10-18T08:01:18.572Z,10.50
2018-10-18T08:03:49.519Z,11.53
2018-10-18T08:06:20.416Z,10.37
2018-10-18T08:08:51.356Z,10.40
2018-10-18T08:11:22.309Z,12.53
2018-10-18T08:13:53.348Z,11.40
2018-10-18T08:16:24.256Z,10.30
2018-10-18T08:18:56.207Z,10.17
2018-10-18T08:21:27.406Z,10.83
2018-10-18T08:23:59.737Z,10.07
2018-10-18T08:26:31.624Z,11.93
2018-10-18T08:29:02.983Z,12.17
2018-10-18T08:31:34.032Z,10.13
2018-10-18T08:34:05.954Z,10.27
2018-10-18T08:36:37.906Z,9.47
2018-10-18T08:39:10.841Z,9.93
2018-10-18T08:41:41.981Z,10.13
2018-10-18T08:44:13.363Z,10.93
2018-10-18T08:46:44.572Z,10.23
2018-10-18T08:49:18.342Z,9.67
2018-10-18T08:51:51.569Z,9.97
2018-10-18T08:54:22.386Z,10.33
2018-10-18T08:56:53.555Z,9.63
2018-10-18T08:59:25.621Z,8.33
2018-10-18T09:01:57.746Z,8.50
2018-10-18T09:04:28.737Z,9.93
2018-10-18T09:06:59.952Z,8.37
2018-10-18T09:09:31.674Z,8.10
2018-10-18T09:12:09.626Z,9.03
2018-10-18T09:14:40.893Z,9.60
2018-10-18T09:17:11.775Z,8.43
2018-10-18T09:19:43.631Z,8.73
2018-10-18T09:22:14.985Z,7.47
2018-10-18T09:24:46.399Z,9.23
2018-10-18T09:27:18.549Z,9.27
2018-10-18T09:30:02.000Z,8.87
2018-10-18T09:32:33.480Z,9.20
2018-10-18T09:35:05.159Z,10.37
2018-10-18T09:37:36.185Z,9.30
2018-10-18T09:40:08.794Z,9.83
2018-10-18T09:42:39.959Z,9.93
2018-10-18T09:45:12.372Z,9.83
2018-10-18T09:47:43.265Z,9.57
2018-10-18T09:50:14.750Z,8.23
2018-10-18T09:52:45.635Z,8.97
2018-10-18T09:55:19.565Z,8.67
2018-10-18T09:57:50.861Z,9.87
2018-10-18T10:00:38.879Z,9.43
2018-10-18T10:03:14.929Z,10.10
2018-10-18T10:05:48.696Z,9.57
2018-10-18T10:08:22.862Z,9.67
2018-10-18T10:10:57.536Z,11.53
2018-10-18T10:13:28.680Z,9.87
2018-10-18T10:16:00.327Z,12.17
2018-10-18T10:18:31.225Z,10.20
2018-10-18T10:21:02.164Z,11.33
2018-10-18T10:23:33.070Z,9.80
2018-10-18T10:26:04.348Z,9.97
2018-10-18T10:28:35.219Z,12.93
2018-10-18T10:31:07.130Z,12.63
2018-10-18T10:33:38.585Z,13.43
2018-10-18T10:36:09.603Z,13.10
2018-10-18T10:38:40.574Z,11.93
2018-10-18T10:41:18.274Z,12.43
2018-10-18T10:43:49.363Z,10.80
2018-10-18T10:46:20.376Z,11.87
2018-10-18T10:48:51.580Z,11.10
2018-10-18T10:51:22.643Z,10.67
2018-10-18T10:53:56.477Z,9.20
2018-10-18T10:56:27.987Z,10.70
2018-10-18T10:59:00.255Z,9.47
2018-10-18T11:01:31.674Z,9.73
2018-10-18T11:04:03.347Z,9.17
2018-10-18T11:06:36.260Z,9.37
2018-10-18T11:09:10.834Z,8.43
2018-10-18T11:11:43.180Z,8.90
2018-10-18T11:14:14.184Z,9.47
2018-10-18T11:16:45.728Z,9.23
2018-10-18T11:19:16.602Z,8.20
2018-10-18T11:21:47.581Z,8.80
2018-10-18T11:24:18.754Z,8.40
2018-10-18T11:26:49.840Z,8.43
2018-10-18T11:29:20.868Z,9.60
2018-10-18T11:31:52.146Z,9.17
2018-10-18T11:34:23.977Z,8.87
2018-10-18T11:36:55.351Z,8.23
2018-10-18T11:39:26.246Z,9.77
2018-10-18T11:41:57.195Z,8.33
2018-10-18T11:44:33.173Z,8.40
2018-10-18T11:47:04.116Z,9.53
2018-10-18T11:49:35.009Z,9.60
2018-10-18T11:52:17.545Z,7.73
2018-10-18T11:54:48.471Z,8.40
2018-10-18T11:57:19.455Z,9.63
2018-10-18T11:59:50.333Z,9.13
2018-10-18T12:02:21.289Z,9.50
2018-10-18T12:04:52.787Z,8.77
2018-10-18T12:07:23.792Z,8.70
2018-10-18T12:09:55.679Z,8.40
2018-10-18T12:12:27.719Z,8.73
2018-10-18T12:14:58.854Z,9.47
2018-10-18T12:17:30.753Z,9.37
2018-10-18T12:20:01.688Z,9.73
2018-10-18T12:22:32.961Z,9.77
2018-10-18T12:25:03.868Z,10.37
2018-10-18T12:27:35.347Z,8.83
2018-10-18T12:30:07.803Z,9.73
2018-10-18T12:32:41.458Z,10.87
2018-10-18T12:35:15.694Z,9.20
2018-10-18T12:37:48.339Z,9.33
2018-10-18T12:40:22.990Z,9.60
2018-10-18T12:42:54.208Z,11.07
2018-10-18T12:45:25.102Z,9.90
2018-10-18T12:47:56.073Z,9.03
2018-10-18T12:50:26.956Z,9.83
2018-10-18T12:52:57.989Z,8.87
2018-10-18T12:55:28.876Z,9.33
2018-10-18T12:57:59.865Z,9.30
2018-10-18T13:00:30.767Z,9.23
2018-10-18T13:03:01.691Z,9.30
2018-10-18T13:05:32.625Z,9.43
2018-10-18T13:09:28.239Z,9.00
2018-10-18T13:11:59.494Z,8.43
2018-10-18T13:14:31.167Z,9.40
2018-10-18T13:17:02.053Z,16.47
2018-10-18T13:19:33.011Z,10.53
2018-10-18T13:22:03.925Z,11.10
2018-10-18T13:24:34.873Z,16.93
2018-10-18T13:27:05.933Z,11.07
2018-10-18T13:29:36.948Z,10.20
2018-10-18T13:32:07.936Z,9.33
2018-10-18T13:34:40.036Z,9.43
2018-10-18T13:37:10.933Z,8.47
2018-10-18T13:39:41.898Z,8.93
2018-10-18T13:42:12.929Z,8.17
2018-10-18T13:44:43.992Z,9.23
2018-10-18T13:47:14.879Z,9.30
2018-10-18T13:49:45.807Z,11.10
2018-10-18T13:52:16.703Z,9.47
2018-10-18T13:54:47.905Z,12.47
2018-10-18T13:57:19.094Z,13.63
2018-10-18T14:00:00.956Z,10.20
2018-10-18T14:02:32.068Z,11.33
2018-10-18T14:05:03.051Z,11.00
2018-10-18T14:07:34.137Z,11.47
2018-10-18T14:10:05.195Z,11.63
2018-10-18T14:12:36.113Z,10.90
2018-10-18T14:15:07.780Z,13.13
2018-10-18T14:17:39.164Z,12.37
2018-10-18T14:20:10.605Z,13.13
2018-10-18T14:22:41.954Z,11.63
2018-10-18T14:25:12.924Z,10.83
2018-10-18T14:27:43.855Z,9.90
2018-10-18T14:30:14.956Z,10.97
2018-10-18T14:32:46.000Z,11.00
2018-10-18T14:35:17.463Z,10.83
2018-10-18T14:37:48.402Z,13.27
2018-10-18T14:40:19.332Z,24.07
2018-10-18T14:42:50.221Z,21.43
2018-10-18T14:45:21.327Z,11.57
2018-10-18T14:47:52.296Z,10.47
2018-10-18T14:50:23.556Z,15.60
2018-10-18T14:52:54.573Z,48.97
2018-10-18T14:55:25.812Z,54.90
2018-10-18T14:57:57.098Z,53.83
2018-10-18T15:00:28.112Z,38.70
2018-10-18T15:02:59.310Z,29.30
2018-10-18T15:05:30.258Z,18.97
2018-10-18T15:08:01.216Z,13.47
2018-10-18T15:10:32.329Z,11.63
2018-10-18T15:13:03.229Z,74.07
2018-10-18T15:15:34.230Z,24.23
2018-10-18T15:18:05.288Z,21.17
2018-10-18T15:20:38.842Z,19.10
2018-10-18T15:23:09.814Z,26.63
2018-10-18T15:25:41.231Z,23.57
2018-10-18T15:28:12.180Z,15.63
2018-10-18T15:30:43.193Z,17.47
2018-10-18T15:33:14.158Z,12.13
2018-10-18T15:35:45.369Z,16.43
2018-10-18T15:38:16.483Z,17.37
2018-10-18T15:40:47.837Z,23.17
2018-10-18T15:43:18.726Z,17.20
2018-10-18T15:45:49.783Z,26.97
2018-10-18T15:48:20.672Z,24.27
2018-10-18T15:50:51.636Z,15.00
2018-10-18T15:53:22.535Z,12.70
2018-10-18T15:55:53.583Z,12.87
2018-10-18T15:58:24.464Z,12.27
2018-10-18T16:00:55.469Z,11.70
2018-10-18T16:03:26.370Z,11.93
2018-10-18T16:05:57.978Z,13.97
2018-10-18T16:08:28.882Z,11.03
2018-10-18T16:10:59.901Z,12.10
2018-10-18T16:13:31.157Z,10.90
2018-10-18T16:16:02.210Z,9.50
2018-10-18T16:18:35.909Z,10.47
2018-10-18T16:21:06.989Z,10.17
2018-10-18T16:23:38.112Z,12.23
2018-10-18T16:26:09.226Z,10.20
2018-10-18T16:28:40.218Z,10.77
2018-10-18T16:31:11.269Z,11.57
2018-10-18T16:33:42.228Z,11.50
2018-10-18T16:36:13.412Z,10.23
2018-10-18T16:38:44.386Z,9.20
2018-10-18T16:41:15.547Z,10.43
2018-10-18T16:43:46.462Z,9.83
2018-10-18T16:46:17.559Z,12.07
2018-10-18T16:48:48.835Z,10.03
2018-10-18T16:51:19.806Z,10.87
2018-10-18T16:53:50.858Z,10.33
2018-10-18T16:56:22.580Z,10.93
2018-10-18T16:58:53.697Z,12.47
2018-10-18T17:01:25.170Z,20.37
2018-10-18T17:03:56.072Z,12.53
2018-10-18T17:06:27.102Z,14.77
2018-10-18T17:08:58.260Z,21.87
2018-10-18T17:11:29.411Z,21.57
2018-10-18T17:14:00.515Z,48.83
2018-10-18T17:16:31.784Z,21.50
2018-10-18T17:19:02.660Z,29.57
2018-10-18T17:21:34.596Z,40.03
2018-10-18T17:24:05.623Z,34.10
2018-10-18T17:26:36.967Z,10.77
2018-10-18T17:29:08.284Z,12.40
2018-10-18T17:31:39.355Z,12.20
2018-10-18T17:34:10.341Z,20.10
2018-10-18T17:36:41.430Z,10.47
2018-10-18T17:39:12.515Z,11.07
2018-10-18T17:41:43.461Z,12.97
2018-10-18T17:44:14.504Z,20.10
2018-10-18T17:46:45.691Z,23.10
2018-10-18T17:49:16.595Z,18.87
2018-10-18T17:51:47.545Z,17.00
2018-10-18T17:55:21.137Z,9.77
2018-10-18T17:57:52.279Z,19.23
2018-10-18T18:00:26.276Z,13.13
2018-10-18T18:02:57.315Z,15.63
2018-10-18T18:05:28.255Z,15.17
2018-10-18T18:07:59.331Z,16.93
2018-10-18T18:10:30.620Z,15.93
2018-10-18T18:13:01.894Z,16.50
2018-10-18T18:15:33.222Z,14.07
2018-10-18T18:18:04.615Z,15.17
2018-10-18T18:20:35.977Z,16.13
2018-10-18T18:23:07.660Z,22.00
2018-10-18T18:25:47.931Z,230.73
2018-10-18T18:28:24.433Z,223.97
2018-10-18T18:30:56.922Z,152.00
2018-10-18T18:33:29.582Z,130.70
2018-10-18T18:36:01.444Z,48.07
2018-10-18T18:38:38.604Z,40.80
2018-10-18T18:41:10.280Z,66.00
2018-10-18T18:43:44.709Z,28.97
2018-10-18T18:46:21.991Z,27.30
2018-10-18T18:48:56.426Z,25.27
2018-10-18T18:51:27.948Z,25.40
2018-10-18T18:53:59.445Z,24.67
2018-10-18T18:56:30.606Z,25.40
2018-10-18T18:59:01.829Z,24.73
2018-10-18T19:01:32.685Z,23.43
2018-10-18T19:04:03.645Z,21.17
2018-10-18T19:06:34.570Z,20.67
2018-10-18T19:09:09.706Z,21.23
2018-10-18T19:11:41.513Z,26.00
2018-10-18T19:14:12.436Z,29.47
2018-10-18T19:17:06.052Z,36.10
2018-10-18T19:19:38.951Z,41.50
2018-10-18T19:22:09.918Z,44.90
2018-10-18T19:24:41.805Z,45.83
2018-10-18T19:27:13.784Z,44.33
2018-10-18T19:29:44.735Z,38.47
2018-10-18T19:32:17.637Z,31.50
2018-10-18T19:34:48.816Z,21.37
2018-10-18T19:37:20.016Z,18.67
2018-10-18T19:40:00.911Z,19.70
2018-10-18T19:42:32.808Z,20.70
2018-10-18T19:45:09.784Z,20.50
2018-10-18T19:47:41.060Z,20.17
2018-10-18T19:50:12.021Z,21.37
2018-10-18T19:52:43.242Z,25.50
2018-10-18T19:55:14.311Z,25.40
2018-10-18T19:57:45.232Z,99.07
2018-10-18T20:00:21.536Z,41.43
2018-10-18T20:02:57.600Z,25.80
2018-10-18T20:05:33.576Z,23.30
2018-10-18T20:08:09.606Z,19.83
2018-10-18T20:10:45.598Z,25.77
2018-10-18T20:13:21.363Z,19.53
2018-10-18T20:15:57.102Z,15.93
2018-10-18T20:18:33.014Z,14.93
2018-10-18T20:21:09.521Z,15.77
2018-10-18T20:23:45.472Z,20.43
2018-10-18T20:26:21.622Z,20.77
2018-10-18T20:28:57.336Z,16.13
2018-10-18T20:31:33.429Z,17.40
2018-10-18T20:35:33.328Z,20.83
2018-10-18T20:38:11.882Z,22.77
2018-10-18T20:40:47.725Z,21.37
2018-10-18T20:43:23.686Z,21.70
2018-10-18T20:46:00.547Z,22.43
2018-10-18T20:48:36.767Z,21.07
2018-10-18T20:51:12.758Z,22.90
2018-10-18T20:53:48.830Z,24.93
2018-10-18T20:56:24.718Z,26.57
2018-10-18T20:59:00.526Z,15.80
2018-10-18T21:01:36.302Z,15.10
2018-10-18T21:04:12.313Z,16.00
2018-10-18T21:06:48.235Z,13.77
2018-10-18T21:09:24.128Z,12.80
2018-10-18T21:12:00.044Z,15.93
2018-10-18T21:14:36.191Z,18.37
2018-10-18T21:17:12.193Z,17.57
2018-10-18T21:19:48.353Z,19.07
2018-10-18T21:22:24.359Z,18.40
2018-10-18T21:25:00.257Z,20.00
2018-10-18T21:27:36.131Z,17.53
2018-10-18T21:30:12.320Z,16.83
2018-10-18T21:32:48.494Z,16.63
2018-10-18T21:35:24.498Z,15.57
2018-10-18T21:38:00.642Z,13.80
2018-10-18T21:40:36.467Z,19.97
2018-10-18T21:43:12.286Z,16.03
2018-10-18T21:45:48.292Z,16.33
2018-10-18T21:48:24.289Z,15.93
2018-10-18T21:51:00.192Z,13.37
2018-10-18T21:53:36.271Z,12.77
2018-10-18T21:56:12.235Z,15.03
2018-10-18T21:58:48.088Z,16.13
2018-10-18T22:01:24.109Z,16.20
2018-10-18T22:04:00.000Z,17.80
2018-10-18T22:06:36.240Z,16.77
2018-10-18T22:09:12.091Z,17.37
2018-10-18T22:11:48.107Z,15.90
2018-10-18T22:14:23.984Z,17.37
2018-10-18T22:17:00.395Z,16.23
2018-10-18T22:19:36.178Z,13.87
2018-10-18T22:22:12.069Z,14.20
2018-10-18T22:24:47.980Z,14.53
2018-10-18T22:27:23.950Z,12.87
2018-10-18T22:29:59.761Z,13.37
2018-10-18T22:32:35.630Z,12.73
2018-10-18T22:35:11.754Z,12.80
2018-10-18T22:37:47.807Z,12.37
2018-10-18T22:40:23.705Z,12.20
2018-10-18T22:42:59.929Z,11.87
2018-10-18T22:45:35.796Z,13.00
2018-10-18T22:48:11.656Z,12.83
2018-10-18T22:50:47.388Z,12.93
2018-10-18T22:53:23.220Z,13.33
2018-10-18T22:55:58.968Z,12.33
2018-10-18T22:58:34.885Z,13.00
2018-10-18T23:01:10.654Z,12.70
2018-10-18T23:03:46.554Z,12.83
2018-10-18T23:06:22.424Z,13.60
2018-10-18T23:08:58.345Z,14.40
2018-10-18T23:11:34.157Z,14.93
2018-10-18T23:14:10.820Z,15.73
2018-10-18T23:16:46.662Z,14.83
2018-10-18T23:19:22.608Z,15.00
2018-10-18T23:21:58.400Z,16.03
2018-10-18T23:24:35.549Z,14.90
2018-10-18T23:27:10.649Z,16.10
2018-10-18T23:29:46.662Z,15.70
2018-10-18T23:32:22.469Z,14.20
2018-10-18T23:34:58.371Z,14.23
2018-10-18T23:37:34.347Z,13.50
2018-10-18T23:40:10.238Z,13.40
2018-10-18T23:42:45.949Z,11.47
2018-10-18T23:45:22.804Z,11.77
2018-10-18T23:47:58.639Z,12.77
2018-10-18T23:50:34.481Z,14.33
2018-10-18T23:53:10.402Z,15.23
2018-10-18T23:55:46.505Z,15.93
2018-10-18T23:58:22.343Z,14.87
